sensor_id;sensor_type;location;lat;lon;timestamp;P1;durP1;ratioP1;P2;durP2;ratioP2
42246;SDS011;27913;42.722;23.268;2023-05-16T00:00:03;6.07;;;3.40;;
42246;SDS011;27913;42.722;23.268;2023-05-16T00:05:08;7.75;;;3.90;;
42246;SDS011;27913;42.722;23.268;2023-05-16T00:07:44;7.32;;;3.90;;
42246;SDS011;27913;42.722;23.268;2023-05-16T00:10:11;4.65;;;3.25;;
42246;SDS011;27913;42.722;23.268;2023-05-16T00:12:37;6.47;;;4.07;;
42246;SDS011;27913;42.722;23.268;2023-05-16T00:15:04;8.65;;;4.00;;
42246;SDS011;27913;42.722;23.268;2023-05-16T00:17:32;7.28;;;3.83;;
42246;SDS011;27913;42.722;23.268;2023-05-16T00:19:59;5.50;;;3.90;;
42246;SDS011;27913;42.722;23.268;2023-05-16T00:22:34;6.00;;;4.15;;
42246;SDS011;27913;42.722;23.268;2023-05-16T00:24:59;6.35;;;4.40;;
42246;SDS011;27913;42.722;23.268;2023-05-16T00:27:26;9.55;;;5.15;;
42246;SDS011;27913;42.722;23.268;2023-05-16T00:29:51;5.45;;;3.92;;
42246;SDS011;27913;42.722;23.268;2023-05-16T00:32:17;6.22;;;4.20;;
42246;SDS011;27913;42.722;23.268;2023-05-16T00:34:42;6.45;;;4.30;;
42246;SDS011;27913;42.722;23.268;2023-05-16T00:37:08;6.32;;;4.50;;
42246;SDS011;27913;42.722;23.268;2023-05-16T00:39:33;7.15;;;4.65;;
42246;SDS011;27913;42.722;23.268;2023-05-16T00:41:59;5.88;;;3.85;;
42246;SDS011;27913;42.722;23.268;2023-05-16T00:44:24;7.15;;;4.43;;
42246;SDS011;27913;42.722;23.268;2023-05-16T00:46:50;4.53;;;3.15;;
42246;SDS011;27913;42.722;23.268;2023-05-16T00:49:16;7.15;;;4.68;;
42246;SDS011;27913;42.722;23.268;2023-05-16T00:51:42;6.97;;;4.53;;
42246;SDS011;27913;42.722;23.268;2023-05-16T00:54:08;7.22;;;4.38;;
42246;SDS011;27913;42.722;23.268;2023-05-16T00:56:34;8.60;;;4.68;;
42246;SDS011;27913;42.722;23.268;2023-05-16T00:59:00;9.63;;;4.93;;
42246;SDS011;27913;42.722;23.268;2023-05-16T01:01:27;5.50;;;3.63;;
42246;SDS011;27913;42.722;23.268;2023-05-16T01:03:53;8.48;;;4.32;;
42246;SDS011;27913;42.722;23.268;2023-05-16T01:06:19;4.93;;;3.50;;
42246;SDS011;27913;42.722;23.268;2023-05-16T01:08:45;5.75;;;3.63;;
42246;SDS011;27913;42.722;23.268;2023-05-16T01:11:21;5.78;;;3.85;;
42246;SDS011;27913;42.722;23.268;2023-05-16T01:16:41;7.15;;;4.18;;
42246;SDS011;27913;42.722;23.268;2023-05-16T01:24:40;5.72;;;3.60;;
42246;SDS011;27913;42.722;23.268;2023-05-16T01:27:14;5.85;;;3.75;;
42246;SDS011;27913;42.722;23.268;2023-05-16T01:29:40;8.32;;;5.20;;
42246;SDS011;27913;42.722;23.268;2023-05-16T01:32:06;7.20;;;4.40;;
42246;SDS011;27913;42.722;23.268;2023-05-16T01:34:31;5.53;;;3.67;;
42246;SDS011;27913;42.722;23.268;2023-05-16T01:39:31;6.18;;;4.05;;
42246;SDS011;27913;42.722;23.268;2023-05-16T01:42:03;5.93;;;3.58;;
42246;SDS011;27913;42.722;23.268;2023-05-16T01:44:40;3.75;;;2.83;;
42246;SDS011;27913;42.722;23.268;2023-05-16T01:52:18;5.30;;;3.38;;
42246;SDS011;27913;42.722;23.268;2023-05-16T01:54:51;6.63;;;4.38;;
42246;SDS011;27913;42.722;23.268;2023-05-16T01:57:18;7.47;;;4.53;;
42246;SDS011;27913;42.722;23.268;2023-05-16T01:59:48;7.07;;;3.97;;
42246;SDS011;27913;42.722;23.268;2023-05-16T02:02:16;5.25;;;3.38;;
42246;SDS011;27913;42.722;23.268;2023-05-16T02:04:42;6.97;;;4.40;;
42246;SDS011;27913;42.722;23.268;2023-05-16T02:07:08;6.28;;;4.47;;
42246;SDS011;27913;42.722;23.268;2023-05-16T02:09:34;9.65;;;5.22;;
42246;SDS011;27913;42.722;23.268;2023-05-16T02:12:00;6.93;;;4.75;;
42246;SDS011;27913;42.722;23.268;2023-05-16T02:14:26;8.40;;;4.72;;
42246;SDS011;27913;42.722;23.268;2023-05-16T02:16:51;9.65;;;5.35;;
42246;SDS011;27913;42.722;23.268;2023-05-16T02:19:17;7.60;;;4.75;;
42246;SDS011;27913;42.722;23.268;2023-05-16T02:21:43;6.55;;;4.53;;
42246;SDS011;27913;42.722;23.268;2023-05-16T02:24:08;6.35;;;4.63;;
42246;SDS011;27913;42.722;23.268;2023-05-16T02:26:34;8.75;;;5.30;;
42246;SDS011;27913;42.722;23.268;2023-05-16T02:28:59;7.68;;;5.18;;
42246;SDS011;27913;42.722;23.268;2023-05-16T02:31:28;6.07;;;4.03;;
42246;SDS011;27913;42.722;23.268;2023-05-16T02:33:56;7.13;;;5.20;;
42246;SDS011;27913;42.722;23.268;2023-05-16T02:36:22;7.85;;;5.40;;
42246;SDS011;27913;42.722;23.268;2023-05-16T02:38:49;7.97;;;5.65;;
42246;SDS011;27913;42.722;23.268;2023-05-16T02:41:16;10.57;;;7.18;;
42246;SDS011;27913;42.722;23.268;2023-05-16T02:43:41;7.45;;;5.68;;
42246;SDS011;27913;42.722;23.268;2023-05-16T02:46:25;7.68;;;5.78;;
42246;SDS011;27913;42.722;23.268;2023-05-16T02:48:52;9.57;;;6.20;;
42246;SDS011;27913;42.722;23.268;2023-05-16T02:51:19;7.78;;;5.55;;
42246;SDS011;27913;42.722;23.268;2023-05-16T02:53:46;9.50;;;6.65;;
42246;SDS011;27913;42.722;23.268;2023-05-16T02:56:11;11.65;;;6.43;;
42246;SDS011;27913;42.722;23.268;2023-05-16T02:58:37;8.68;;;5.80;;
42246;SDS011;27913;42.722;23.268;2023-05-16T03:01:03;9.23;;;6.70;;
42246;SDS011;27913;42.722;23.268;2023-05-16T03:03:29;9.68;;;6.60;;
42246;SDS011;27913;42.722;23.268;2023-05-16T03:05:54;9.15;;;5.38;;
42246;SDS011;27913;42.722;23.268;2023-05-16T03:08:20;10.07;;;5.90;;
42246;SDS011;27913;42.722;23.268;2023-05-16T03:10:45;8.23;;;5.75;;
42246;SDS011;27913;42.722;23.268;2023-05-16T03:13:11;6.75;;;4.97;;
42246;SDS011;27913;42.722;23.268;2023-05-16T03:15:37;12.07;;;6.85;;
42246;SDS011;27913;42.722;23.268;2023-05-16T03:18:02;18.02;;;7.00;;
42246;SDS011;27913;42.722;23.268;2023-05-16T03:20:28;7.60;;;5.68;;
42246;SDS011;27913;42.722;23.268;2023-05-16T03:22:53;11.48;;;5.90;;
42246;SDS011;27913;42.722;23.268;2023-05-16T03:25:19;9.25;;;5.13;;
42246;SDS011;27913;42.722;23.268;2023-05-16T03:27:45;6.90;;;4.85;;
42246;SDS011;27913;42.722;23.268;2023-05-16T03:30:11;8.27;;;5.90;;
42246;SDS011;27913;42.722;23.268;2023-05-16T03:32:37;8.50;;;5.78;;
42246;SDS011;27913;42.722;23.268;2023-05-16T03:35:03;8.63;;;5.60;;
42246;SDS011;27913;42.722;23.268;2023-05-16T03:37:29;7.97;;;5.57;;
42246;SDS011;27913;42.722;23.268;2023-05-16T03:39:54;9.20;;;5.05;;
42246;SDS011;27913;42.722;23.268;2023-05-16T03:42:20;7.05;;;5.35;;
42246;SDS011;27913;42.722;23.268;2023-05-16T03:44:45;7.85;;;5.45;;
42246;SDS011;27913;42.722;23.268;2023-05-16T03:47:11;7.43;;;5.38;;
42246;SDS011;27913;42.722;23.268;2023-05-16T03:49:36;7.15;;;4.97;;
42246;SDS011;27913;42.722;23.268;2023-05-16T03:52:04;8.02;;;4.55;;
42246;SDS011;27913;42.722;23.268;2023-05-16T03:54:30;6.93;;;4.35;;
42246;SDS011;27913;42.722;23.268;2023-05-16T03:56:55;8.43;;;5.45;;
42246;SDS011;27913;42.722;23.268;2023-05-16T03:59:21;9.70;;;5.97;;
42246;SDS011;27913;42.722;23.268;2023-05-16T04:01:46;9.85;;;5.90;;
42246;SDS011;27913;42.722;23.268;2023-05-16T04:04:12;11.30;;;5.95;;
42246;SDS011;27913;42.722;23.268;2023-05-16T04:06:38;12.32;;;6.25;;
42246;SDS011;27913;42.722;23.268;2023-05-16T04:09:03;32.08;;;8.82;;
42246;SDS011;27913;42.722;23.268;2023-05-16T04:11:30;7.05;;;5.03;;
42246;SDS011;27913;42.722;23.268;2023-05-16T04:13:56;8.70;;;5.90;;
42246;SDS011;27913;42.722;23.268;2023-05-16T04:16:22;14.75;;;7.00;;
42246;SDS011;27913;42.722;23.268;2023-05-16T04:18:48;11.23;;;5.70;;
42246;SDS011;27913;42.722;23.268;2023-05-16T04:21:13;10.38;;;6.85;;
42246;SDS011;27913;42.722;23.268;2023-05-16T04:23:39;8.45;;;5.72;;
42246;SDS011;27913;42.722;23.268;2023-05-16T04:26:05;7.13;;;4.80;;
42246;SDS011;27913;42.722;23.268;2023-05-16T04:28:31;6.80;;;5.03;;
42246;SDS011;27913;42.722;23.268;2023-05-16T04:30:57;12.25;;;6.40;;
42246;SDS011;27913;42.722;23.268;2023-05-16T04:33:22;23.98;;;6.63;;
42246;SDS011;27913;42.722;23.268;2023-05-16T04:35:48;10.68;;;6.57;;
42246;SDS011;27913;42.722;23.268;2023-05-16T04:38:14;10.07;;;6.38;;
42246;SDS011;27913;42.722;23.268;2023-05-16T04:40:40;10.45;;;6.25;;
42246;SDS011;27913;42.722;23.268;2023-05-16T04:43:08;8.05;;;5.63;;
42246;SDS011;27913;42.722;23.268;2023-05-16T04:45:34;6.70;;;4.65;;
42246;SDS011;27913;42.722;23.268;2023-05-16T04:48:00;7.43;;;5.15;;
42246;SDS011;27913;42.722;23.268;2023-05-16T04:50:26;6.88;;;5.00;;
42246;SDS011;27913;42.722;23.268;2023-05-16T04:52:51;7.18;;;5.20;;
42246;SDS011;27913;42.722;23.268;2023-05-16T04:55:17;16.85;;;5.97;;
42246;SDS011;27913;42.722;23.268;2023-05-16T04:57:42;7.68;;;5.45;;
42246;SDS011;27913;42.722;23.268;2023-05-16T05:00:08;15.55;;;7.32;;
42246;SDS011;27913;42.722;23.268;2023-05-16T05:02:36;7.97;;;6.00;;
42246;SDS011;27913;42.722;23.268;2023-05-16T05:05:03;10.48;;;5.97;;
42246;SDS011;27913;42.722;23.268;2023-05-16T05:07:29;7.47;;;4.78;;
42246;SDS011;27913;42.722;23.268;2023-05-16T05:09:55;7.43;;;5.60;;
42246;SDS011;27913;42.722;23.268;2023-05-16T05:12:21;8.90;;;5.63;;
42246;SDS011;27913;42.722;23.268;2023-05-16T05:14:46;8.18;;;5.85;;
42246;SDS011;27913;42.722;23.268;2023-05-16T05:17:12;9.23;;;6.50;;
42246;SDS011;27913;42.722;23.268;2023-05-16T05:19:37;12.45;;;5.90;;
42246;SDS011;27913;42.722;23.268;2023-05-16T05:22:03;8.60;;;5.18;;
42246;SDS011;27913;42.722;23.268;2023-05-16T05:24:28;21.38;;;6.85;;
42246;SDS011;27913;42.722;23.268;2023-05-16T05:26:54;13.38;;;9.23;;
42246;SDS011;27913;42.722;23.268;2023-05-16T05:29:30;29.30;;;9.82;;
42246;SDS011;27913;42.722;23.268;2023-05-16T05:31:56;8.85;;;6.55;;
42246;SDS011;27913;42.722;23.268;2023-05-16T05:34:22;13.45;;;7.68;;
42246;SDS011;27913;42.722;23.268;2023-05-16T05:36:47;11.48;;;7.55;;
42246;SDS011;27913;42.722;23.268;2023-05-16T05:39:13;16.27;;;7.93;;
42246;SDS011;27913;42.722;23.268;2023-05-16T05:41:38;15.20;;;7.65;;
42246;SDS011;27913;42.722;23.268;2023-05-16T05:44:04;11.27;;;7.22;;
42246;SDS011;27913;42.722;23.268;2023-05-16T05:46:30;10.98;;;7.20;;
42246;SDS011;27913;42.722;23.268;2023-05-16T05:48:56;9.57;;;6.30;;
42246;SDS011;27913;42.722;23.268;2023-05-16T05:51:22;9.65;;;6.70;;
42246;SDS011;27913;42.722;23.268;2023-05-16T05:53:48;9.07;;;5.80;;
42246;SDS011;27913;42.722;23.268;2023-05-16T05:56:14;9.70;;;6.32;;
42246;SDS011;27913;42.722;23.268;2023-05-16T05:58:39;6.45;;;4.93;;
42246;SDS011;27913;42.722;23.268;2023-05-16T06:01:09;11.57;;;6.00;;
42246;SDS011;27913;42.722;23.268;2023-05-16T06:03:35;11.07;;;5.50;;
42246;SDS011;27913;42.722;23.268;2023-05-16T06:06:01;6.50;;;4.18;;
42246;SDS011;27913;42.722;23.268;2023-05-16T06:08:27;7.70;;;4.88;;
42246;SDS011;27913;42.722;23.268;2023-05-16T06:10:53;7.22;;;4.97;;
42246;SDS011;27913;42.722;23.268;2023-05-16T06:13:18;7.00;;;4.63;;
42246;SDS011;27913;42.722;23.268;2023-05-16T06:15:43;8.63;;;5.15;;
42246;SDS011;27913;42.722;23.268;2023-05-16T06:18:14;8.02;;;4.18;;
42246;SDS011;27913;42.722;23.268;2023-05-16T06:20:40;7.25;;;4.60;;
42246;SDS011;27913;42.722;23.268;2023-05-16T06:23:06;9.13;;;5.55;;
42246;SDS011;27913;42.722;23.268;2023-05-16T06:25:31;27.77;;;7.22;;
42246;SDS011;27913;42.722;23.268;2023-05-16T06:27:57;7.43;;;5.05;;
42246;SDS011;27913;42.722;23.268;2023-05-16T06:30:22;7.13;;;4.78;;
42246;SDS011;27913;42.722;23.268;2023-05-16T06:32:48;6.43;;;4.32;;
42246;SDS011;27913;42.722;23.268;2023-05-16T06:35:14;9.43;;;5.65;;
42246;SDS011;27913;42.722;23.268;2023-05-16T06:37:39;9.23;;;5.00;;
42246;SDS011;27913;42.722;23.268;2023-05-16T06:40:05;17.17;;;4.63;;
42246;SDS011;27913;42.722;23.268;2023-05-16T06:42:31;13.98;;;4.50;;
42246;SDS011;27913;42.722;23.268;2023-05-16T06:44:56;5.82;;;3.47;;
42246;SDS011;27913;42.722;23.268;2023-05-16T06:47:22;6.20;;;3.72;;
42246;SDS011;27913;42.722;23.268;2023-05-16T06:49:48;4.85;;;3.40;;
42246;SDS011;27913;42.722;23.268;2023-05-16T06:52:14;5.38;;;3.25;;
42246;SDS011;27913;42.722;23.268;2023-05-16T06:54:40;9.30;;;4.63;;
42246;SDS011;27913;42.722;23.268;2023-05-16T06:57:06;6.43;;;3.67;;
42246;SDS011;27913;42.722;23.268;2023-05-16T06:59:32;4.45;;;2.75;;
42246;SDS011;27913;42.722;23.268;2023-05-16T07:01:59;5.40;;;3.67;;
42246;SDS011;27913;42.722;23.268;2023-05-16T07:04:25;5.65;;;3.20;;
42246;SDS011;27913;42.722;23.268;2023-05-16T07:06:51;5.45;;;3.25;;
42246;SDS011;27913;42.722;23.268;2023-05-16T07:09:17;5.65;;;3.03;;
42246;SDS011;27913;42.722;23.268;2023-05-16T07:11:42;4.40;;;2.72;;
42246;SDS011;27913;42.722;23.268;2023-05-16T07:14:08;4.80;;;3.00;;
42246;SDS011;27913;42.722;23.268;2023-05-16T07:16:34;8.30;;;4.13;;
42246;SDS011;27913;42.722;23.268;2023-05-16T07:19:00;2.55;;;1.85;;
42246;SDS011;27913;42.722;23.268;2023-05-16T07:21:25;17.48;;;3.00;;
42246;SDS011;27913;42.722;23.268;2023-05-16T07:23:51;23.02;;;3.53;;
42246;SDS011;27913;42.722;23.268;2023-05-16T07:26:17;4.35;;;2.80;;
42246;SDS011;27913;42.722;23.268;2023-05-16T07:28:42;5.88;;;3.50;;
42246;SDS011;27913;42.722;23.268;2023-05-16T07:31:08;10.55;;;3.65;;
42246;SDS011;27913;42.722;23.268;2023-05-16T07:33:34;4.60;;;2.95;;
42246;SDS011;27913;42.722;23.268;2023-05-16T07:35:59;4.40;;;2.65;;
42246;SDS011;27913;42.722;23.268;2023-05-16T07:38:25;6.93;;;3.17;;
42246;SDS011;27913;42.722;23.268;2023-05-16T07:40:51;4.40;;;2.65;;
42246;SDS011;27913;42.722;23.268;2023-05-16T07:43:16;6.15;;;3.22;;
42246;SDS011;27913;42.722;23.268;2023-05-16T07:45:42;4.85;;;2.85;;
42246;SDS011;27913;42.722;23.268;2023-05-16T07:48:07;3.92;;;2.40;;
42246;SDS011;27913;42.722;23.268;2023-05-16T07:50:33;4.85;;;2.88;;
42246;SDS011;27913;42.722;23.268;2023-05-16T07:52:59;5.85;;;2.38;;
42246;SDS011;27913;42.722;23.268;2023-05-16T07:55:24;4.30;;;2.55;;
42246;SDS011;27913;42.722;23.268;2023-05-16T07:57:50;6.10;;;3.08;;
42246;SDS011;27913;42.722;23.268;2023-05-16T08:00:16;6.53;;;2.95;;
42246;SDS011;27913;42.722;23.268;2023-05-16T08:02:42;4.70;;;2.40;;
42246;SDS011;27913;42.722;23.268;2023-05-16T08:05:29;9.55;;;2.47;;
42246;SDS011;27913;42.722;23.268;2023-05-16T08:07:54;4.78;;;2.65;;
42246;SDS011;27913;42.722;23.268;2023-05-16T08:10:20;5.25;;;3.45;;
42246;SDS011;27913;42.722;23.268;2023-05-16T08:12:47;4.97;;;2.88;;
42246;SDS011;27913;42.722;23.268;2023-05-16T08:15:13;4.22;;;2.75;;
42246;SDS011;27913;42.722;23.268;2023-05-16T08:17:38;4.13;;;2.75;;
42246;SDS011;27913;42.722;23.268;2023-05-16T08:20:04;5.00;;;2.72;;
42246;SDS011;27913;42.722;23.268;2023-05-16T08:22:30;4.65;;;3.17;;
42246;SDS011;27913;42.722;23.268;2023-05-16T08:24:57;8.02;;;3.75;;
42246;SDS011;27913;42.722;23.268;2023-05-16T08:27:24;5.22;;;2.53;;
42246;SDS011;27913;42.722;23.268;2023-05-16T08:29:50;4.28;;;2.55;;
42246;SDS011;27913;42.722;23.268;2023-05-16T08:32:16;2.55;;;1.73;;
42246;SDS011;27913;42.722;23.268;2023-05-16T08:34:41;5.90;;;3.10;;
42246;SDS011;27913;42.722;23.268;2023-05-16T08:37:07;4.40;;;2.58;;
42246;SDS011;27913;42.722;23.268;2023-05-16T08:39:33;5.18;;;2.92;;
42246;SDS011;27913;42.722;23.268;2023-05-16T08:41:59;8.32;;;3.45;;
42246;SDS011;27913;42.722;23.268;2023-05-16T08:44:24;8.73;;;3.00;;
42246;SDS011;27913;42.722;23.268;2023-05-16T08:46:51;3.65;;;2.58;;
42246;SDS011;27913;42.722;23.268;2023-05-16T08:49:17;3.50;;;2.20;;
42246;SDS011;27913;42.722;23.268;2023-05-16T08:51:45;5.32;;;2.45;;
42246;SDS011;27913;42.722;23.268;2023-05-16T08:54:12;2.72;;;1.83;;
42246;SDS011;27913;42.722;23.268;2023-05-16T08:56:41;5.20;;;2.42;;
42246;SDS011;27913;42.722;23.268;2023-05-16T08:59:08;3.97;;;2.33;;
42246;SDS011;27913;42.722;23.268;2023-05-16T09:01:35;4.53;;;2.95;;
42246;SDS011;27913;42.722;23.268;2023-05-16T09:04:01;6.63;;;3.38;;
42246;SDS011;27913;42.722;23.268;2023-05-16T09:06:28;8.35;;;3.53;;
42246;SDS011;27913;42.722;23.268;2023-05-16T09:08:53;7.07;;;4.40;;
42246;SDS011;27913;42.722;23.268;2023-05-16T09:11:19;9.20;;;3.63;;
42246;SDS011;27913;42.722;23.268;2023-05-16T09:13:45;5.97;;;3.60;;
42246;SDS011;27913;42.722;23.268;2023-05-16T09:16:13;4.38;;;2.63;;
42246;SDS011;27913;42.722;23.268;2023-05-16T09:18:44;4.65;;;3.33;;
42246;SDS011;27913;42.722;23.268;2023-05-16T09:21:17;5.47;;;3.55;;
42246;SDS011;27913;42.722;23.268;2023-05-16T09:23:43;5.60;;;3.00;;
42246;SDS011;27913;42.722;23.268;2023-05-16T09:26:09;7.28;;;3.92;;
42246;SDS011;27913;42.722;23.268;2023-05-16T09:28:36;15.43;;;3.33;;
42246;SDS011;27913;42.722;23.268;2023-05-16T09:31:02;3.50;;;2.38;;
42246;SDS011;27913;42.722;23.268;2023-05-16T09:33:28;6.05;;;3.20;;
42246;SDS011;27913;42.722;23.268;2023-05-16T09:35:58;4.53;;;2.70;;
42246;SDS011;27913;42.722;23.268;2023-05-16T09:38:26;7.10;;;3.30;;
42246;SDS011;27913;42.722;23.268;2023-05-16T09:40:53;6.32;;;3.00;;
42246;SDS011;27913;42.722;23.268;2023-05-16T09:43:20;8.15;;;3.70;;
42246;SDS011;27913;42.722;23.268;2023-05-16T09:45:51;4.55;;;3.10;;
42246;SDS011;27913;42.722;23.268;2023-05-16T09:48:17;4.95;;;3.10;;
42246;SDS011;27913;42.722;23.268;2023-05-16T09:50:51;4.50;;;2.38;;
42246;SDS011;27913;42.722;23.268;2023-05-16T09:53:28;5.32;;;3.28;;
42246;SDS011;27913;42.722;23.268;2023-05-16T09:55:58;6.53;;;3.00;;
42246;SDS011;27913;42.722;23.268;2023-05-16T09:58:28;4.30;;;2.60;;
42246;SDS011;27913;42.722;23.268;2023-05-16T10:01:02;4.88;;;2.90;;
42246;SDS011;27913;42.722;23.268;2023-05-16T10:03:28;4.10;;;2.60;;
42246;SDS011;27913;42.722;23.268;2023-05-16T10:05:54;6.45;;;3.17;;
42246;SDS011;27913;42.722;23.268;2023-05-16T10:08:21;4.78;;;2.65;;
42246;SDS011;27913;42.722;23.268;2023-05-16T10:10:58;6.18;;;3.17;;
42246;SDS011;27913;42.722;23.268;2023-05-16T10:13:27;4.30;;;2.17;;
42246;SDS011;27913;42.722;23.268;2023-05-16T10:15:54;5.60;;;2.70;;
42246;SDS011;27913;42.722;23.268;2023-05-16T10:18:21;3.72;;;2.35;;
42246;SDS011;27913;42.722;23.268;2023-05-16T10:20:50;4.28;;;2.38;;
42246;SDS011;27913;42.722;23.268;2023-05-16T10:23:19;5.47;;;2.28;;
42246;SDS011;27913;42.722;23.268;2023-05-16T10:25:46;5.65;;;2.15;;
42246;SDS011;27913;42.722;23.268;2023-05-16T10:28:13;7.90;;;3.55;;
42246;SDS011;27913;42.722;23.268;2023-05-16T10:30:41;11.60;;;5.28;;
42246;SDS011;27913;42.722;23.268;2023-05-16T10:33:12;5.43;;;2.45;;
42246;SDS011;27913;42.722;23.268;2023-05-16T10:38:06;6.97;;;2.92;;
42246;SDS011;27913;42.722;23.268;2023-05-16T10:40:33;5.30;;;3.10;;
42246;SDS011;27913;42.722;23.268;2023-05-16T10:43:00;5.47;;;3.17;;
42246;SDS011;27913;42.722;23.268;2023-05-16T10:45:27;5.93;;;3.28;;
42246;SDS011;27913;42.722;23.268;2023-05-16T10:47:54;4.95;;;2.80;;
42246;SDS011;27913;42.722;23.268;2023-05-16T10:53:15;8.10;;;3.25;;
42246;SDS011;27913;42.722;23.268;2023-05-16T10:55:47;11.07;;;2.88;;
42246;SDS011;27913;42.722;23.268;2023-05-16T11:03:59;3.13;;;2.08;;
42246;SDS011;27913;42.722;23.268;2023-05-16T11:11:41;5.07;;;2.50;;
42246;SDS011;27913;42.722;23.268;2023-05-16T11:14:22;7.25;;;3.90;;
42246;SDS011;27913;42.722;23.268;2023-05-16T11:16:49;4.78;;;3.25;;
42246;SDS011;27913;42.722;23.268;2023-05-16T11:24:51;5.45;;;3.72;;
42246;SDS011;27913;42.722;23.268;2023-05-16T11:27:29;12.70;;;3.67;;
42246;SDS011;27913;42.722;23.268;2023-05-16T11:32:35;8.63;;;3.38;;
42246;SDS011;27913;42.722;23.268;2023-05-16T11:35:02;8.23;;;3.03;;
42246;SDS011;27913;42.722;23.268;2023-05-16T11:37:28;9.32;;;4.32;;
42246;SDS011;27913;42.722;23.268;2023-05-16T11:40:00;5.35;;;3.05;;
42246;SDS011;27913;42.722;23.268;2023-05-16T11:42:33;11.13;;;3.70;;
42246;SDS011;27913;42.722;23.268;2023-05-16T11:45:03;6.63;;;3.47;;
42246;SDS011;27913;42.722;23.268;2023-05-16T11:47:30;4.20;;;2.85;;
42246;SDS011;27913;42.722;23.268;2023-05-16T11:49:56;6.47;;;3.42;;
42246;SDS011;27913;42.722;23.268;2023-05-16T11:52:22;4.22;;;2.70;;
42246;SDS011;27913;42.722;23.268;2023-05-16T11:54:48;4.75;;;2.80;;
42246;SDS011;27913;42.722;23.268;2023-05-16T11:57:15;5.25;;;3.15;;
42246;SDS011;27913;42.722;23.268;2023-05-16T11:59:41;5.55;;;3.20;;
42246;SDS011;27913;42.722;23.268;2023-05-16T12:02:06;5.20;;;2.72;;
42246;SDS011;27913;42.722;23.268;2023-05-16T12:04:34;6.03;;;3.20;;
42246;SDS011;27913;42.722;23.268;2023-05-16T12:07:00;6.03;;;3.20;;
42246;SDS011;27913;42.722;23.268;2023-05-16T12:09:26;6.05;;;4.20;;
42246;SDS011;27913;42.722;23.268;2023-05-16T12:11:51;6.80;;;3.80;;
42246;SDS011;27913;42.722;23.268;2023-05-16T12:14:17;5.82;;;3.60;;
42246;SDS011;27913;42.722;23.268;2023-05-16T12:16:43;5.65;;;3.03;;
42246;SDS011;27913;42.722;23.268;2023-05-16T12:19:10;7.78;;;4.30;;
42246;SDS011;27913;42.722;23.268;2023-05-16T12:21:36;7.60;;;3.53;;
42246;SDS011;27913;42.722;23.268;2023-05-16T12:24:02;4.07;;;2.70;;
42246;SDS011;27913;42.722;23.268;2023-05-16T12:26:29;5.80;;;2.53;;
42246;SDS011;27913;42.722;23.268;2023-05-16T12:28:57;4.55;;;2.95;;
42246;SDS011;27913;42.722;23.268;2023-05-16T12:31:25;6.93;;;3.08;;
42246;SDS011;27913;42.722;23.268;2023-05-16T12:33:54;4.93;;;2.80;;
42246;SDS011;27913;42.722;23.268;2023-05-16T12:36:20;4.78;;;2.53;;
42246;SDS011;27913;42.722;23.268;2023-05-16T12:38:46;6.40;;;3.33;;
42246;SDS011;27913;42.722;23.268;2023-05-16T12:41:21;3.80;;;2.08;;
42246;SDS011;27913;42.722;23.268;2023-05-16T12:43:47;5.63;;;3.00;;
42246;SDS011;27913;42.722;23.268;2023-05-16T12:46:14;9.32;;;2.80;;
42246;SDS011;27913;42.722;23.268;2023-05-16T12:48:40;4.30;;;2.55;;
42246;SDS011;27913;42.722;23.268;2023-05-16T12:53:41;8.77;;;3.33;;
42246;SDS011;27913;42.722;23.268;2023-05-16T12:56:08;8.23;;;2.88;;
42246;SDS011;27913;42.722;23.268;2023-05-16T12:58:34;4.90;;;3.03;;
42246;SDS011;27913;42.722;23.268;2023-05-16T13:00:59;4.10;;;2.13;;
42246;SDS011;27913;42.722;23.268;2023-05-16T13:03:25;6.38;;;2.92;;
42246;SDS011;27913;42.722;23.268;2023-05-16T13:05:51;4.72;;;2.85;;
42246;SDS011;27913;42.722;23.268;2023-05-16T13:08:16;5.35;;;2.88;;
42246;SDS011;27913;42.722;23.268;2023-05-16T13:10:42;5.20;;;2.67;;
42246;SDS011;27913;42.722;23.268;2023-05-16T13:13:07;17.52;;;3.63;;
42246;SDS011;27913;42.722;23.268;2023-05-16T13:15:33;8.18;;;4.70;;
42246;SDS011;27913;42.722;23.268;2023-05-16T13:18:03;7.65;;;4.22;;
42246;SDS011;27913;42.722;23.268;2023-05-16T13:20:28;5.38;;;3.20;;
42246;SDS011;27913;42.722;23.268;2023-05-16T13:22:54;6.03;;;3.85;;
42246;SDS011;27913;42.722;23.268;2023-05-16T13:25:20;5.20;;;3.40;;
42246;SDS011;27913;42.722;23.268;2023-05-16T13:27:45;4.95;;;3.40;;
42246;SDS011;27913;42.722;23.268;2023-05-16T13:30:13;5.90;;;3.22;;
42246;SDS011;27913;42.722;23.268;2023-05-16T13:32:39;3.72;;;2.67;;
42246;SDS011;27913;42.722;23.268;2023-05-16T13:35:05;4.28;;;3.00;;
42246;SDS011;27913;42.722;23.268;2023-05-16T13:37:30;3.58;;;2.13;;
42246;SDS011;27913;42.722;23.268;2023-05-16T13:39:56;5.28;;;3.22;;
42246;SDS011;27913;42.722;23.268;2023-05-16T13:42:21;10.80;;;6.43;;
42246;SDS011;27913;42.722;23.268;2023-05-16T13:44:47;24.20;;;12.85;;
42246;SDS011;27913;42.722;23.268;2023-05-16T13:47:13;12.90;;;8.38;;
42246;SDS011;27913;42.722;23.268;2023-05-16T13:49:39;16.23;;;7.20;;
42246;SDS011;27913;42.722;23.268;2023-05-16T13:52:05;14.27;;;6.88;;
42246;SDS011;27913;42.722;23.268;2023-05-16T13:54:30;6.57;;;4.07;;
42246;SDS011;27913;42.722;23.268;2023-05-16T13:56:56;10.52;;;3.97;;
42246;SDS011;27913;42.722;23.268;2023-05-16T13:59:22;8.48;;;4.20;;
42246;SDS011;27913;42.722;23.268;2023-05-16T14:01:47;8.90;;;3.25;;
42246;SDS011;27913;42.722;23.268;2023-05-16T14:04:13;6.97;;;3.15;;
42246;SDS011;27913;42.722;23.268;2023-05-16T14:06:38;8.88;;;4.38;;
42246;SDS011;27913;42.722;23.268;2023-05-16T14:09:04;8.68;;;3.05;;
42246;SDS011;27913;42.722;23.268;2023-05-16T14:11:30;4.82;;;3.42;;
42246;SDS011;27913;42.722;23.268;2023-05-16T14:13:56;5.80;;;3.85;;
42246;SDS011;27913;42.722;23.268;2023-05-16T14:17:09;9.35;;;4.57;;
42246;SDS011;27913;42.722;23.268;2023-05-16T14:19:35;10.07;;;5.13;;
42246;SDS011;27913;42.722;23.268;2023-05-16T14:22:00;5.70;;;3.55;;
42246;SDS011;27913;42.722;23.268;2023-05-16T14:24:26;6.28;;;3.53;;
42246;SDS011;27913;42.722;23.268;2023-05-16T14:26:52;10.52;;;4.95;;
42246;SDS011;27913;42.722;23.268;2023-05-16T14:29:19;6.45;;;4.50;;
42246;SDS011;27913;42.722;23.268;2023-05-16T14:31:45;10.07;;;6.88;;
42246;SDS011;27913;42.722;23.268;2023-05-16T14:34:12;12.00;;;7.28;;
42246;SDS011;27913;42.722;23.268;2023-05-16T14:36:37;11.20;;;5.85;;
42246;SDS011;27913;42.722;23.268;2023-05-16T14:39:04;6.53;;;4.65;;
42246;SDS011;27913;42.722;23.268;2023-05-16T14:41:29;7.25;;;5.18;;
42246;SDS011;27913;42.722;23.268;2023-05-16T14:43:55;38.40;;;7.50;;
42246;SDS011;27913;42.722;23.268;2023-05-16T14:46:20;12.77;;;9.10;;
42246;SDS011;27913;42.722;23.268;2023-05-16T14:48:46;6.13;;;4.03;;
42246;SDS011;27913;42.722;23.268;2023-05-16T14:51:11;8.63;;;7.45;;
42246;SDS011;27913;42.722;23.268;2023-05-16T14:53:37;7.82;;;5.03;;
42246;SDS011;27913;42.722;23.268;2023-05-16T14:56:03;11.38;;;6.40;;
42246;SDS011;27913;42.722;23.268;2023-05-16T14:58:29;6.05;;;3.08;;
42246;SDS011;27913;42.722;23.268;2023-05-16T15:00:54;5.63;;;3.42;;
42246;SDS011;27913;42.722;23.268;2023-05-16T15:03:20;7.47;;;5.03;;
42246;SDS011;27913;42.722;23.268;2023-05-16T15:05:46;6.10;;;4.50;;
42246;SDS011;27913;42.722;23.268;2023-05-16T15:08:11;12.18;;;3.53;;
42246;SDS011;27913;42.722;23.268;2023-05-16T15:10:37;20.83;;;4.05;;
42246;SDS011;27913;42.722;23.268;2023-05-16T15:13:03;5.53;;;3.70;;
42246;SDS011;27913;42.722;23.268;2023-05-16T15:15:28;6.32;;;3.40;;